sensor_id;sensor_type;location;lat;lon;timestamp;P1;durP1;ratioP1;P2;durP2;ratioP2
5297;SDS011;14738;42.668;23.250;2023-02-02T00:01:45;5.03;;;2.30;;
5297;SDS011;14738;42.668;23.250;2023-02-02T00:04:22;1.73;;;1.63;;
5297;SDS011;14738;42.668;23.250;2023-02-02T00:06:50;2.47;;;2.10;;
5297;SDS011;14738;42.668;23.250;2023-02-02T00:09:16;3.33;;;2.40;;
5297;SDS011;14738;42.668;23.250;2023-02-02T00:11:43;4.60;;;2.10;;
5297;SDS011;14738;42.668;23.250;2023-02-02T00:14:10;2.07;;;1.90;;
5297;SDS011;14738;42.668;23.250;2023-02-02T00:19:04;2.33;;;2.10;;
5297;SDS011;14738;42.668;23.250;2023-02-02T00:21:34;3.03;;;2.17;;
5297;SDS011;14738;42.668;23.250;2023-02-02T00:24:02;4.70;;;2.60;;
5297;SDS011;14738;42.668;23.250;2023-02-02T00:26:28;2.20;;;2.00;;
5297;SDS011;14738;42.668;23.250;2023-02-02T00:28:53;2.73;;;2.10;;
5297;SDS011;14738;42.668;23.250;2023-02-02T00:31:19;3.60;;;2.70;;
5297;SDS011;14738;42.668;23.250;2023-02-02T00:33:45;4.13;;;2.50;;
5297;SDS011;14738;42.668;23.250;2023-02-02T00:36:11;4.47;;;2.47;;
5297;SDS011;14738;42.668;23.250;2023-02-02T00:38:36;3.00;;;2.80;;
5297;SDS011;14738;42.668;23.250;2023-02-02T00:41:02;4.23;;;2.80;;
5297;SDS011;14738;42.668;23.250;2023-02-02T00:43:28;2.73;;;2.40;;
5297;SDS011;14738;42.668;23.250;2023-02-02T00:45:54;2.73;;;2.13;;
5297;SDS011;14738;42.668;23.250;2023-02-02T00:48:20;3.63;;;2.50;;
5297;SDS011;14738;42.668;23.250;2023-02-02T00:50:45;4.43;;;2.60;;
5297;SDS011;14738;42.668;23.250;2023-02-02T00:53:11;2.20;;;2.03;;
5297;SDS011;14738;42.668;23.250;2023-02-02T00:55:36;2.43;;;2.20;;
5297;SDS011;14738;42.668;23.250;2023-02-02T00:58:02;2.93;;;2.33;;
5297;SDS011;14738;42.668;23.250;2023-02-02T01:00:27;2.80;;;2.10;;
5297;SDS011;14738;42.668;23.250;2023-02-02T01:02:53;4.20;;;2.70;;
5297;SDS011;14738;42.668;23.250;2023-02-02T01:05:19;4.33;;;2.50;;
5297;SDS011;14738;42.668;23.250;2023-02-02T01:07:45;3.73;;;2.70;;
5297;SDS011;14738;42.668;23.250;2023-02-02T01:10:13;6.70;;;2.60;;
5297;SDS011;14738;42.668;23.250;2023-02-02T01:12:40;4.17;;;2.23;;
5297;SDS011;14738;42.668;23.250;2023-02-02T01:15:07;2.77;;;2.50;;
5297;SDS011;14738;42.668;23.250;2023-02-02T01:17:36;4.10;;;2.47;;
5297;SDS011;14738;42.668;23.250;2023-02-02T01:20:02;6.60;;;2.80;;
5297;SDS011;14738;42.668;23.250;2023-02-02T01:22:28;3.00;;;2.70;;
5297;SDS011;14738;42.668;23.250;2023-02-02T01:24:54;3.37;;;3.03;;
5297;SDS011;14738;42.668;23.250;2023-02-02T01:27:19;3.13;;;2.90;;
5297;SDS011;14738;42.668;23.250;2023-02-02T01:29:45;3.53;;;2.90;;
5297;SDS011;14738;42.668;23.250;2023-02-02T01:32:10;4.90;;;3.30;;
5297;SDS011;14738;42.668;23.250;2023-02-02T01:34:36;3.20;;;2.90;;
5297;SDS011;14738;42.668;23.250;2023-02-02T01:37:05;5.60;;;3.83;;
5297;SDS011;14738;42.668;23.250;2023-02-02T01:39:31;3.00;;;2.80;;
5297;SDS011;14738;42.668;23.250;2023-02-02T01:41:57;5.80;;;3.37;;
5297;SDS011;14738;42.668;23.250;2023-02-02T01:47:15;4.40;;;2.63;;
5297;SDS011;14738;42.668;23.250;2023-02-02T01:49:41;7.30;;;3.90;;
5297;SDS011;14738;42.668;23.250;2023-02-02T01:52:06;4.37;;;3.47;;
5297;SDS011;14738;42.668;23.250;2023-02-02T01:54:35;3.80;;;3.23;;
5297;SDS011;14738;42.668;23.250;2023-02-02T01:57:12;4.87;;;3.13;;
5297;SDS011;14738;42.668;23.250;2023-02-02T01:59:48;5.03;;;3.40;;
5297;SDS011;14738;42.668;23.250;2023-02-02T02:02:16;3.03;;;2.83;;
5297;SDS011;14738;42.668;23.250;2023-02-02T02:04:42;4.17;;;2.97;;
5297;SDS011;14738;42.668;23.250;2023-02-02T02:07:07;5.50;;;3.30;;
5297;SDS011;14738;42.668;23.250;2023-02-02T02:09:33;7.50;;;3.50;;
5297;SDS011;14738;42.668;23.250;2023-02-02T02:11:59;3.23;;;2.70;;
5297;SDS011;14738;42.668;23.250;2023-02-02T02:14:24;3.93;;;3.60;;
5297;SDS011;14738;42.668;23.250;2023-02-02T02:17:15;3.50;;;3.20;;
5297;SDS011;14738;42.668;23.250;2023-02-02T02:34:34;3.73;;;3.37;;
5297;SDS011;14738;42.668;23.250;2023-02-02T02:39:49;7.00;;;3.50;;
5297;SDS011;14738;42.668;23.250;2023-02-02T02:42:29;5.10;;;3.17;;
5297;SDS011;14738;42.668;23.250;2023-02-02T02:44:59;6.00;;;4.17;;
5297;SDS011;14738;42.668;23.250;2023-02-02T02:47:28;5.97;;;3.43;;
5297;SDS011;14738;42.668;23.250;2023-02-02T02:49:55;5.90;;;3.80;;
5297;SDS011;14738;42.668;23.250;2023-02-02T02:52:21;8.20;;;3.80;;
5297;SDS011;14738;42.668;23.250;2023-02-02T02:54:48;6.50;;;3.77;;
5297;SDS011;14738;42.668;23.250;2023-02-02T03:10:41;3.70;;;3.40;;
5297;SDS011;14738;42.668;23.250;2023-02-02T03:13:10;5.23;;;3.13;;
5297;SDS011;14738;42.668;23.250;2023-02-02T03:15:40;4.50;;;3.60;;
5297;SDS011;14738;42.668;23.250;2023-02-02T03:18:10;5.00;;;3.63;;
5297;SDS011;14738;42.668;23.250;2023-02-02T03:20:37;3.13;;;2.93;;
5297;SDS011;14738;42.668;23.250;2023-02-02T03:23:03;3.60;;;3.30;;
5297;SDS011;14738;42.668;23.250;2023-02-02T03:25:28;3.80;;;3.60;;
5297;SDS011;14738;42.668;23.250;2023-02-02T03:27:54;2.67;;;2.47;;
5297;SDS011;14738;42.668;23.250;2023-02-02T03:30:19;2.77;;;2.57;;
5297;SDS011;14738;42.668;23.250;2023-02-02T03:32:46;3.00;;;2.80;;
5297;SDS011;14738;42.668;23.250;2023-02-02T03:35:12;3.00;;;2.80;;
5297;SDS011;14738;42.668;23.250;2023-02-02T03:37:37;2.90;;;2.70;;
5297;SDS011;14738;42.668;23.250;2023-02-02T03:40:03;3.03;;;2.83;;
5297;SDS011;14738;42.668;23.250;2023-02-02T03:42:30;4.07;;;3.70;;
5297;SDS011;14738;42.668;23.250;2023-02-02T03:44:55;4.20;;;3.10;;
5297;SDS011;14738;42.668;23.250;2023-02-02T03:47:21;3.17;;;2.90;;
5297;SDS011;14738;42.668;23.250;2023-02-02T03:49:46;3.27;;;2.97;;
5297;SDS011;14738;42.668;23.250;2023-02-02T03:52:11;3.90;;;3.50;;
5297;SDS011;14738;42.668;23.250;2023-02-02T03:54:37;3.73;;;3.43;;
5297;SDS011;14738;42.668;23.250;2023-02-02T03:57:02;3.73;;;3.40;;
5297;SDS011;14738;42.668;23.250;2023-02-02T03:59:27;4.70;;;3.43;;
5297;SDS011;14738;42.668;23.250;2023-02-02T04:01:53;4.07;;;3.63;;
5297;SDS011;14738;42.668;23.250;2023-02-02T04:04:18;3.60;;;3.30;;
5297;SDS011;14738;42.668;23.250;2023-02-02T04:06:43;3.50;;;3.30;;
5297;SDS011;14738;42.668;23.250;2023-02-02T04:09:09;3.87;;;3.47;;
5297;SDS011;14738;42.668;23.250;2023-02-02T04:11:34;3.70;;;3.40;;
5297;SDS011;14738;42.668;23.250;2023-02-02T04:14:00;3.57;;;3.23;;
5297;SDS011;14738;42.668;23.250;2023-02-02T04:16:25;3.70;;;3.50;;
5297;SDS011;14738;42.668;23.250;2023-02-02T04:18:50;4.60;;;4.23;;
5297;SDS011;14738;42.668;23.250;2023-02-02T04:21:16;4.97;;;3.83;;
5297;SDS011;14738;42.668;23.250;2023-02-02T04:23:41;4.23;;;3.20;;
5297;SDS011;14738;42.668;23.250;2023-02-02T04:26:07;3.30;;;3.10;;
5297;SDS011;14738;42.668;23.250;2023-02-02T04:28:32;4.00;;;3.70;;
5297;SDS011;14738;42.668;23.250;2023-02-02T04:30:59;3.50;;;3.20;;
5297;SDS011;14738;42.668;23.250;2023-02-02T04:33:25;3.60;;;3.40;;
5297;SDS011;14738;42.668;23.250;2023-02-02T04:35:51;3.37;;;3.17;;
5297;SDS011;14738;42.668;23.250;2023-02-02T04:38:16;3.00;;;2.80;;
5297;SDS011;14738;42.668;23.250;2023-02-02T04:40:43;3.90;;;3.60;;
5297;SDS011;14738;42.668;23.250;2023-02-02T04:43:10;3.23;;;3.03;;
5297;SDS011;14738;42.668;23.250;2023-02-02T04:45:35;4.57;;;3.80;;
5297;SDS011;14738;42.668;23.250;2023-02-02T04:48:01;3.30;;;3.00;;
5297;SDS011;14738;42.668;23.250;2023-02-02T04:50:27;2.87;;;2.67;;
5297;SDS011;14738;42.668;23.250;2023-02-02T04:52:52;4.43;;;3.73;;
5297;SDS011;14738;42.668;23.250;2023-02-02T04:55:18;3.23;;;3.03;;
5297;SDS011;14738;42.668;23.250;2023-02-02T04:57:43;3.13;;;2.87;;
5297;SDS011;14738;42.668;23.250;2023-02-02T05:00:09;5.70;;;2.80;;
5297;SDS011;14738;42.668;23.250;2023-02-02T05:02:36;3.50;;;3.20;;
5297;SDS011;14738;42.668;23.250;2023-02-02T05:05:03;3.13;;;2.93;;
5297;SDS011;14738;42.668;23.250;2023-02-02T05:07:30;2.80;;;2.60;;
5297;SDS011;14738;42.668;23.250;2023-02-02T05:09:55;2.77;;;2.67;;
5297;SDS011;14738;42.668;23.250;2023-02-02T05:12:21;3.20;;;3.00;;
5297;SDS011;14738;42.668;23.250;2023-02-02T05:14:46;3.50;;;3.30;;
5297;SDS011;14738;42.668;23.250;2023-02-02T05:17:12;3.50;;;3.03;;
5297;SDS011;14738;42.668;23.250;2023-02-02T05:19:37;3.30;;;2.90;;
5297;SDS011;14738;42.668;23.250;2023-02-02T05:22:02;2.90;;;2.80;;
5297;SDS011;14738;42.668;23.250;2023-02-02T05:24:28;3.90;;;3.60;;
5297;SDS011;14738;42.668;23.250;2023-02-02T05:26:53;5.70;;;3.50;;
5297;SDS011;14738;42.668;23.250;2023-02-02T05:29:22;3.03;;;2.83;;
5297;SDS011;14738;42.668;23.250;2023-02-02T05:31:48;3.33;;;3.03;;
5297;SDS011;14738;42.668;23.250;2023-02-02T05:34:13;6.50;;;3.30;;
5297;SDS011;14738;42.668;23.250;2023-02-02T05:36:39;3.30;;;3.10;;
5297;SDS011;14738;42.668;23.250;2023-02-02T05:39:04;4.40;;;3.37;;
5297;SDS011;14738;42.668;23.250;2023-02-02T05:41:30;3.47;;;2.70;;
5297;SDS011;14738;42.668;23.250;2023-02-02T05:43:57;2.70;;;2.60;;
5297;SDS011;14738;42.668;23.250;2023-02-02T05:46:23;3.67;;;3.10;;
5297;SDS011;14738;42.668;23.250;2023-02-02T05:48:48;3.60;;;2.90;;
5297;SDS011;14738;42.668;23.250;2023-02-02T05:51:15;3.33;;;3.03;;
5297;SDS011;14738;42.668;23.250;2023-02-02T05:53:44;5.47;;;2.60;;
5297;SDS011;14738;42.668;23.250;2023-02-02T05:56:10;3.30;;;3.10;;
5297;SDS011;14738;42.668;23.250;2023-02-02T05:58:35;2.63;;;2.43;;
5297;SDS011;14738;42.668;23.250;2023-02-02T06:01:01;3.83;;;3.43;;
5297;SDS011;14738;42.668;23.250;2023-02-02T06:03:27;3.83;;;3.03;;
5297;SDS011;14738;42.668;23.250;2023-02-02T06:05:52;8.23;;;4.87;;
5297;SDS011;14738;42.668;23.250;2023-02-02T06:08:17;6.03;;;3.80;;
5297;SDS011;14738;42.668;23.250;2023-02-02T06:10:43;4.30;;;3.57;;
5297;SDS011;14738;42.668;23.250;2023-02-02T06:13:08;3.50;;;3.23;;
5297;SDS011;14738;42.668;23.250;2023-02-02T06:15:34;3.73;;;3.43;;
5297;SDS011;14738;42.668;23.250;2023-02-02T06:18:00;3.60;;;3.30;;
5297;SDS011;14738;42.668;23.250;2023-02-02T06:20:26;2.80;;;2.60;;
5297;SDS011;14738;42.668;23.250;2023-02-02T06:22:52;3.87;;;3.57;;
5297;SDS011;14738;42.668;23.250;2023-02-02T06:25:17;3.70;;;3.40;;
5297;SDS011;14738;42.668;23.250;2023-02-02T06:27:42;3.40;;;3.20;;
5297;SDS011;14738;42.668;23.250;2023-02-02T06:30:11;3.93;;;3.20;;
5297;SDS011;14738;42.668;23.250;2023-02-02T06:32:37;3.10;;;2.80;;
5297;SDS011;14738;42.668;23.250;2023-02-02T06:35:03;2.93;;;2.73;;
5297;SDS011;14738;42.668;23.250;2023-02-02T06:37:29;5.57;;;3.10;;
5297;SDS011;14738;42.668;23.250;2023-02-02T06:39:55;3.33;;;3.13;;
5297;SDS011;14738;42.668;23.250;2023-02-02T06:42:20;3.13;;;2.83;;
5297;SDS011;14738;42.668;23.250;2023-02-02T06:44:45;2.90;;;2.70;;
5297;SDS011;14738;42.668;23.250;2023-02-02T06:47:11;2.93;;;2.73;;
5297;SDS011;14738;42.668;23.250;2023-02-02T06:49:36;9.93;;;3.00;;
5297;SDS011;14738;42.668;23.250;2023-02-02T06:52:02;6.40;;;5.30;;
5297;SDS011;14738;42.668;23.250;2023-02-02T06:54:27;6.33;;;4.33;;
5297;SDS011;14738;42.668;23.250;2023-02-02T06:56:52;5.27;;;3.97;;
5297;SDS011;14738;42.668;23.250;2023-02-02T06:59:20;4.33;;;3.90;;
5297;SDS011;14738;42.668;23.250;2023-02-02T07:01:47;6.90;;;2.97;;
5297;SDS011;14738;42.668;23.250;2023-02-02T07:04:15;4.33;;;3.83;;
5297;SDS011;14738;42.668;23.250;2023-02-02T07:06:41;3.70;;;3.40;;
5297;SDS011;14738;42.668;23.250;2023-02-02T07:09:07;3.27;;;3.07;;
5297;SDS011;14738;42.668;23.250;2023-02-02T07:11:32;5.90;;;3.37;;
5297;SDS011;14738;42.668;23.250;2023-02-02T07:13:59;4.10;;;3.13;;
5297;SDS011;14738;42.668;23.250;2023-02-02T07:16:25;4.00;;;3.60;;
5297;SDS011;14738;42.668;23.250;2023-02-02T07:18:51;6.07;;;3.73;;
5297;SDS011;14738;42.668;23.250;2023-02-02T07:21:18;3.77;;;3.57;;
5297;SDS011;14738;42.668;23.250;2023-02-02T07:23:45;4.40;;;3.97;;
5297;SDS011;14738;42.668;23.250;2023-02-02T07:26:11;5.80;;;4.10;;
5297;SDS011;14738;42.668;23.250;2023-02-02T07:28:38;3.00;;;2.80;;
5297;SDS011;14738;42.668;23.250;2023-02-02T07:33:39;4.13;;;3.50;;
5297;SDS011;14738;42.668;23.250;2023-02-02T07:36:09;4.13;;;3.83;;
5297;SDS011;14738;42.668;23.250;2023-02-02T07:38:40;7.23;;;4.80;;
5297;SDS011;14738;42.668;23.250;2023-02-02T07:41:06;27.30;;;6.00;;
5297;SDS011;14738;42.668;23.250;2023-02-02T07:43:32;3.87;;;3.17;;
5297;SDS011;14738;42.668;23.250;2023-02-02T07:45:58;3.00;;;2.80;;
5297;SDS011;14738;42.668;23.250;2023-02-02T07:48:29;8.10;;;3.47;;
5297;SDS011;14738;42.668;23.250;2023-02-02T07:50:57;5.40;;;3.40;;
5297;SDS011;14738;42.668;23.250;2023-02-02T07:53:26;4.80;;;3.67;;
5297;SDS011;14738;42.668;23.250;2023-02-02T07:55:52;3.80;;;3.50;;
5297;SDS011;14738;42.668;23.250;2023-02-02T07:58:18;3.90;;;3.57;;
5297;SDS011;14738;42.668;23.250;2023-02-02T08:00:44;4.43;;;4.03;;
5297;SDS011;14738;42.668;23.250;2023-02-02T08:03:10;3.70;;;3.40;;
5297;SDS011;14738;42.668;23.250;2023-02-02T08:05:36;4.80;;;4.37;;
5297;SDS011;14738;42.668;23.250;2023-02-02T08:08:02;14.80;;;4.10;;
5297;SDS011;14738;42.668;23.250;2023-02-02T08:10:27;3.40;;;3.10;;
5297;SDS011;14738;42.668;23.250;2023-02-02T08:12:53;9.60;;;3.40;;
5297;SDS011;14738;42.668;23.250;2023-02-02T08:15:18;6.93;;;3.10;;
5297;SDS011;14738;42.668;23.250;2023-02-02T08:17:44;3.33;;;3.13;;
5297;SDS011;14738;42.668;23.250;2023-02-02T08:20:10;3.90;;;3.60;;
5297;SDS011;14738;42.668;23.250;2023-02-02T08:22:37;3.77;;;3.47;;
5297;SDS011;14738;42.668;23.250;2023-02-02T08:25:03;3.80;;;3.47;;
5297;SDS011;14738;42.668;23.250;2023-02-02T08:27:29;3.80;;;3.40;;
5297;SDS011;14738;42.668;23.250;2023-02-02T08:29:54;6.03;;;3.20;;
5297;SDS011;14738;42.668;23.250;2023-02-02T08:32:20;3.60;;;3.23;;
5297;SDS011;14738;42.668;23.250;2023-02-02T08:34:47;4.80;;;3.30;;
5297;SDS011;14738;42.668;23.250;2023-02-02T08:37:13;3.27;;;2.97;;
5297;SDS011;14738;42.668;23.250;2023-02-02T08:39:38;3.63;;;3.33;;
5297;SDS011;14738;42.668;23.250;2023-02-02T08:42:03;7.93;;;3.53;;
5297;SDS011;14738;42.668;23.250;2023-02-02T08:47:13;5.47;;;3.27;;
5297;SDS011;14738;42.668;23.250;2023-02-02T08:49:38;4.40;;;3.57;;
5297;SDS011;14738;42.668;23.250;2023-02-02T08:52:06;3.90;;;3.70;;
5297;SDS011;14738;42.668;23.250;2023-02-02T08:54:31;3.77;;;3.30;;
5297;SDS011;14738;42.668;23.250;2023-02-02T08:56:57;4.27;;;3.17;;
5297;SDS011;14738;42.668;23.250;2023-02-02T08:59:23;4.00;;;3.20;;
5297;SDS011;14738;42.668;23.250;2023-02-02T09:01:48;9.27;;;2.90;;
5297;SDS011;14738;42.668;23.250;2023-02-02T09:04:16;6.17;;;2.80;;
5297;SDS011;14738;42.668;23.250;2023-02-02T09:06:41;5.80;;;3.70;;
5297;SDS011;14738;42.668;23.250;2023-02-02T09:09:09;15.73;;;11.90;;
5297;SDS011;14738;42.668;23.250;2023-02-02T09:11:36;4.47;;;3.33;;
5297;SDS011;14738;42.668;23.250;2023-02-02T09:14:02;3.47;;;3.17;;
5297;SDS011;14738;42.668;23.250;2023-02-02T09:16:30;3.47;;;3.17;;
5297;SDS011;14738;42.668;23.250;2023-02-02T09:18:57;3.03;;;2.83;;
5297;SDS011;14738;42.668;23.250;2023-02-02T09:21:23;5.50;;;3.73;;
5297;SDS011;14738;42.668;23.250;2023-02-02T09:23:57;3.50;;;3.23;;
5297;SDS011;14738;42.668;23.250;2023-02-02T09:26:26;4.60;;;3.20;;
5297;SDS011;14738;42.668;23.250;2023-02-02T09:28:54;4.67;;;3.10;;
5297;SDS011;14738;42.668;23.250;2023-02-02T09:31:26;3.27;;;3.07;;
5297;SDS011;14738;42.668;23.250;2023-02-02T09:33:51;3.77;;;3.30;;
5297;SDS011;14738;42.668;23.250;2023-02-02T09:36:21;5.50;;;3.60;;
5297;SDS011;14738;42.668;23.250;2023-02-02T09:38:48;3.80;;;2.90;;
5297;SDS011;14738;42.668;23.250;2023-02-02T09:49:21;3.50;;;3.30;;
5297;SDS011;14738;42.668;23.250;2023-02-02T09:51:56;3.47;;;3.17;;
5297;SDS011;14738;42.668;23.250;2023-02-02T09:54:27;4.63;;;3.10;;
5297;SDS011;14738;42.668;23.250;2023-02-02T09:57:01;3.27;;;3.07;;
5297;SDS011;14738;42.668;23.250;2023-02-02T09:59:33;3.23;;;2.93;;
5297;SDS011;14738;42.668;23.250;2023-02-02T10:04:55;4.03;;;3.73;;
5297;SDS011;14738;42.668;23.250;2023-02-02T10:07:34;4.73;;;3.23;;
5297;SDS011;14738;42.668;23.250;2023-02-02T10:10:19;3.20;;;3.00;;
5297;SDS011;14738;42.668;23.250;2023-02-02T10:13:10;7.40;;;3.33;;
5297;SDS011;14738;42.668;23.250;2023-02-02T10:18:35;3.53;;;3.23;;
5297;SDS011;14738;42.668;23.250;2023-02-02T10:26:35;7.78;;;3.38;;
5297;SDS011;14738;42.668;23.250;2023-02-02T10:31:42;9.00;;;3.07;;
5297;SDS011;14738;42.668;23.250;2023-02-02T10:36:46;8.60;;;4.37;;
5297;SDS011;14738;42.668;23.250;2023-02-02T10:42:05;3.57;;;3.27;;
5297;SDS011;14738;42.668;23.250;2023-02-02T10:44:44;4.47;;;3.57;;
5297;SDS011;14738;42.668;23.250;2023-02-02T10:47:25;11.57;;;3.80;;
5297;SDS011;14738;42.668;23.250;2023-02-02T10:50:15;4.07;;;3.60;;
5297;SDS011;14738;42.668;23.250;2023-02-02T10:52:51;3.60;;;3.30;;
5297;SDS011;14738;42.668;23.250;2023-02-02T10:57:56;3.87;;;3.57;;
5297;SDS011;14738;42.668;23.250;2023-02-02T11:02:57;3.73;;;3.40;;
5297;SDS011;14738;42.668;23.250;2023-02-02T11:05:24;6.13;;;4.20;;
5297;SDS011;14738;42.668;23.250;2023-02-02T11:08:24;6.90;;;4.90;;
5297;SDS011;14738;42.668;23.250;2023-02-02T11:10:54;4.63;;;3.30;;
5297;SDS011;14738;42.668;23.250;2023-02-02T11:18:40;3.00;;;2.63;;
5297;SDS011;14738;42.668;23.250;2023-02-02T11:23:58;5.30;;;2.70;;
5297;SDS011;14738;42.668;23.250;2023-02-02T11:26:24;7.07;;;3.10;;
5297;SDS011;14738;42.668;23.250;2023-02-02T11:28:52;11.40;;;3.27;;
5297;SDS011;14738;42.668;23.250;2023-02-02T11:31:33;2.90;;;2.70;;
5297;SDS011;14738;42.668;23.250;2023-02-02T11:34:07;3.00;;;2.70;;
5297;SDS011;14738;42.668;23.250;2023-02-02T11:36:33;4.47;;;2.73;;
5297;SDS011;14738;42.668;23.250;2023-02-02T11:41:46;7.70;;;2.80;;
5297;SDS011;14738;42.668;23.250;2023-02-02T11:44:16;3.47;;;3.17;;
5297;SDS011;14738;42.668;23.250;2023-02-02T11:46:49;3.17;;;2.97;;
5297;SDS011;14738;42.668;23.250;2023-02-02T11:49:16;3.07;;;2.87;;
5297;SDS011;14738;42.668;23.250;2023-02-02T11:54:33;3.33;;;3.10;;
5297;SDS011;14738;42.668;23.250;2023-02-02T11:57:02;4.03;;;3.30;;
5297;SDS011;14738;42.668;23.250;2023-02-02T11:59:38;8.40;;;3.17;;
5297;SDS011;14738;42.668;23.250;2023-02-02T12:04:37;4.93;;;3.00;;
5297;SDS011;14738;42.668;23.250;2023-02-02T12:07:16;7.07;;;2.97;;
5297;SDS011;14738;42.668;23.250;2023-02-02T12:09:46;4.63;;;3.00;;
5297;SDS011;14738;42.668;23.250;2023-02-02T12:14:56;3.20;;;3.00;;
5297;SDS011;14738;42.668;23.250;2023-02-02T12:23:12;4.13;;;2.70;;
5297;SDS011;14738;42.668;23.250;2023-02-02T12:33:59;2.70;;;2.20;;
5297;SDS011;14738;42.668;23.250;2023-02-02T12:36:48;2.00;;;1.90;;
5297;SDS011;14738;42.668;23.250;2023-02-02T12:50:26;2.77;;;2.30;;
5297;SDS011;14738;42.668;23.250;2023-02-02T12:53:03;2.80;;;2.60;;
5297;SDS011;14738;42.668;23.250;2023-02-02T12:55:50;2.30;;;2.20;;
5297;SDS011;14738;42.668;23.250;2023-02-02T13:01:18;3.07;;;2.87;;
5297;SDS011;14738;42.668;23.250;2023-02-02T13:06:52;4.50;;;2.87;;
5297;SDS011;14738;42.668;23.250;2023-02-02T13:09:48;3.40;;;3.07;;
5297;SDS011;14738;42.668;23.250;2023-02-02T13:12:27;2.93;;;2.80;;
5297;SDS011;14738;42.668;23.250;2023-02-02T13:14:57;2.17;;;2.03;;
5297;SDS011;14738;42.668;23.250;2023-02-02T13:17:35;2.40;;;2.30;;
5297;SDS011;14738;42.668;23.250;2023-02-02T13:20:06;2.27;;;2.10;;
5297;SDS011;14738;42.668;23.250;2023-02-02T13:22:42;2.27;;;2.07;;
5297;SDS011;14738;42.668;23.250;2023-02-02T13:28:29;2.23;;;2.10;;
5297;SDS011;14738;42.668;23.250;2023-02-02T13:31:02;1.93;;;1.83;;
5297;SDS011;14738;42.668;23.250;2023-02-02T13:33:32;2.87;;;2.47;;
5297;SDS011;14738;42.668;23.250;2023-02-02T13:36:01;2.17;;;2.07;;
5297;SDS011;14738;42.668;23.250;2023-02-02T13:38:32;2.20;;;2.10;;
5297;SDS011;14738;42.668;23.250;2023-02-02T13:41:00;2.40;;;2.30;;
5297;SDS011;14738;42.668;23.250;2023-02-02T13:43:42;2.53;;;2.37;;
5297;SDS011;14738;42.668;23.250;2023-02-02T13:49:25;3.10;;;2.80;;
5297;SDS011;14738;42.668;23.250;2023-02-02T14:00:21;2.60;;;2.40;;
5297;SDS011;14738;42.668;23.250;2023-02-02T14:02:56;3.43;;;2.67;;
5297;SDS011;14738;42.668;23.250;2023-02-02T14:06:00;2.30;;;2.20;;
5297;SDS011;14738;42.668;23.250;2023-02-02T14:08:34;2.77;;;2.60;;
5297;SDS011;14738;42.668;23.250;2023-02-02T14:11:01;2.47;;;2.37;;
5297;SDS011;14738;42.668;23.250;2023-02-02T14:18:57;2.70;;;2.23;;
5297;SDS011;14738;42.668;23.250;2023-02-02T14:23:55;4.60;;;2.30;;
5297;SDS011;14738;42.668;23.250;2023-02-02T14:26:45;3.03;;;2.60;;
5297;SDS011;14738;42.668;23.250;2023-02-02T14:31:56;9.53;;;4.03;;
5297;SDS011;14738;42.668;23.250;2023-02-02T14:34:26;10.53;;;4.40;;
5297;SDS011;14738;42.668;23.250;2023-02-02T14:37:34;7.93;;;2.97;;
5297;SDS011;14738;42.668;23.250;2023-02-02T14:51:49;4.20;;;3.80;;
5297;SDS011;14738;42.668;23.250;2023-02-02T14:54:21;6.27;;;5.77;;
5297;SDS011;14738;42.668;23.250;2023-02-02T14:57:38;7.10;;;6.50;;
5297;SDS011;14738;42.668;23.250;2023-02-02T14:59:46;8.80;;;7.60;;
5297;SDS011;14738;42.668;23.250;2023-02-02T15:02:19;7.07;;;6.30;;
5297;SDS011;14738;42.668;23.250;2023-02-02T15:04:47;7.53;;;5.37;;
5297;SDS011;14738;42.668;23.250;2023-02-02T15:09:48;6.00;;;5.20;;
5297;SDS011;14738;42.668;23.250;2023-02-02T15:12:15;7.00;;;6.40;;
5297;SDS011;14738;42.668;23.250;2023-02-02T15:17:50;7.77;;;7.07;;
5297;SDS011;14738;42.668;23.250;2023-02-02T15:20:35;6.57;;;5.97;;
5297;SDS011;14738;42.668;23.250;2023-02-02T15:28:50;5.70;;;5.30;;
5297;SDS011;14738;42.668;23.250;2023-02-02T15:34:08;5.70;;;5.30;;
5297;SDS011;14738;42.668;23.250;2023-02-02T15:36:40;3.70;;;3.50;;
5297;SDS011;14738;42.668;23.250;2023-02-02T15:39:29;2.83;;;2.73;;
5297;SDS011;14738;42.668;23.250;2023-02-02T15:41:57;4.33;;;4.00;;
5297;SDS011;14738;42.668;23.250;2023-02-02T15:44:45;3.13;;;3.03;;
5297;SDS011;14738;42.668;23.250;2023-02-02T15:47:15;5.13;;;3.37;;
5297;SDS011;14738;42.668;23.250;2023-02-02T15:49:43;4.07;;;3.77;;
5297;SDS011;14738;42.668;23.250;2023-02-02T15:52:18;3.57;;;3.37;;
5297;SDS011;14738;42.668;23.250;2023-02-02T15:54:53;3.80;;;3.60;;
5297;SDS011;14738;42.668;23.250;2023-02-02T15:57:33;7.40;;;6.70;;
5297;SDS011;14738;42.668;23.250;2023-02-02T16:02:52;3.43;;;3.33;;
5297;SDS011;14738;42.668;23.250;2023-02-02T16:08:00;3.63;;;3.43;;
5297;SDS011;14738;42.668;23.250;2023-02-02T16:10:28;6.20;;;5.70;;
5297;SDS011;14738;42.668;23.250;2023-02-02T16:12:54;4.33;;;4.03;;
5297;SDS011;14738;42.668;23.250;2023-02-02T16:15:21;4.00;;;3.77;;
5297;SDS011;14738;42.668;23.250;2023-02-02T16:17:58;5.03;;;4.63;;
5297;SDS011;14738;42.668;23.250;2023-02-02T16:20:26;4.10;;;3.80;;
5297;SDS011;14738;42.668;23.250;2023-02-02T16:22:53;9.33;;;8.20;;
5297;SDS011;14738;42.668;23.250;2023-02-02T16:25:25;4.70;;;4.40;;
5297;SDS011;14738;42.668;23.250;2023-02-02T16:27:53;4.40;;;4.10;;
5297;SDS011;14738;42.668;23.250;2023-02-02T16:32:55;4.70;;;4.40;;
5297;SDS011;14738;42.668;23.250;2023-02-02T16:35:31;4.17;;;3.93;;
5297;SDS011;14738;42.668;23.250;2023-02-02T16:38:10;2.37;;;2.37;;
5297;SDS011;14738;42.668;23.250;2023-02-02T16:40:45;4.60;;;4.30;;
5297;SDS011;14738;42.668;23.250;2023-02-02T16:43:26;3.03;;;2.93;;
5297;SDS011;14738;42.668;23.250;2023-02-02T16:46:03;3.10;;;3.00;;
5297;SDS011;14738;42.668;23.250;2023-02-02T16:48:56;2.57;;;2.47;;
5297;SDS011;14738;42.668;23.250;2023-02-02T16:51:27;3.50;;;3.30;;
5297;SDS011;14738;42.668;23.250;2023-02-02T16:56:38;3.60;;;3.40;;
5297;SDS011;14738;42.668;23.250;2023-02-02T16:59:17;5.73;;;4.97;;
5297;SDS011;14738;42.668;23.250;2023-02-02T17:01:47;5.70;;;5.20;;
5297;SDS011;14738;42.668;23.250;2023-02-02T17:04:17;5.63;;;5.23;;
5297;SDS011;14738;42.668;23.250;2023-02-02T17:06:46;14.17;;;12.83;;
5297;SDS011;14738;42.668;23.250;2023-02-02T17:09:25;7.50;;;6.80;;
5297;SDS011;14738;42.668;23.250;2023-02-02T17:12:00;6.97;;;6.30;;
5297;SDS011;14738;42.668;23.250;2023-02-02T17:14:34;6.67;;;6.07;;
5297;SDS011;14738;42.668;23.250;2023-02-02T17:17:02;6.17;;;5.67;;
5297;SDS011;14738;42.668;23.250;2023-02-02T17:19:29;5.33;;;4.93;;
5297;SDS011;14738;42.668;23.250;2023-02-02T17:21:55;39.20;;;17.50;;
5297;SDS011;14738;42.668;23.250;2023-02-02T17:24:22;80.13;;;24.00;;
5297;SDS011;14738;42.668;23.250;2023-02-02T17:26:47;45.50;;;17.07;;
5297;SDS011;14738;42.668;23.250;2023-02-02T17:29:14;14.33;;;8.80;;
5297;SDS011;14738;42.668;23.250;2023-02-02T17:31:42;9.60;;;7.50;;
5297;SDS011;14738;42.668;23.250;2023-02-02T17:34:08;10.20;;;8.17;;
5297;SDS011;14738;42.668;23.250;2023-02-02T17:36:40;7.77;;;7.00;;
5297;SDS011;14738;42.668;23.250;2023-02-02T17:39:06;8.90;;;8.00;;
5297;SDS011;14738;42.668;23.250;2023-02-02T17:41:32;9.10;;;8.07;;
5297;SDS011;14738;42.668;23.250;2023-02-02T17:43:57;6.47;;;5.87;;
5297;SDS011;14738;42.668;23.250;2023-02-02T17:46:23;6.10;;;5.60;;
5297;SDS011;14738;42.668;23.250;2023-02-02T17:48:48;3.90;;;3.60;;
5297;SDS011;14738;42.668;23.250;2023-02-02T17:51:14;7.70;;;7.03;;
5297;SDS011;14738;42.668;23.250;2023-02-02T17:53:40;5.00;;;4.63;;
5297;SDS011;14738;42.668;23.250;2023-02-02T17:56:06;4.70;;;4.30;;
5297;SDS011;14738;42.668;23.250;2023-02-02T17:58:34;5.77;;;5.37;;
5297;SDS011;14738;42.668;23.250;2023-02-02T18:00:59;7.00;;;6.40;;
5297;SDS011;14738;42.668;23.250;2023-02-02T18:03:26;7.50;;;6.80;;
5297;SDS011;14738;42.668;23.250;2023-02-02T18:05:54;5.30;;;4.93;;